createdAt,value
2018-08-13T00:00:06.458Z,100000.53
2018-08-13T00:02:36.059Z,99995.77
2018-08-13T00:05:06.043Z,99992.39
2018-08-13T00:07:35.643Z,99988.63
2018-08-13T00:10:05.453Z,99990.77
2018-08-13T00:12:35.043Z,99989.52
2018-08-13T00:15:04.792Z,99990.45
2018-08-13T00:17:34.371Z,99992.45
2018-08-13T00:20:03.962Z,99996.42
2018-08-13T00:22:33.520Z,99994.06
2018-08-13T00:25:03.139Z,99998.47
2018-08-13T00:27:32.723Z,99995.72
2018-08-13T00:30:02.282Z,99995.98
2018-08-13T00:32:31.910Z,99995.17
2018-08-13T00:35:01.567Z,99996.78
2018-08-13T00:37:31.119Z,99996.50
2018-08-13T00:40:00.706Z,99992.33
2018-08-13T00:42:30.299Z,99992.50
2018-08-13T00:44:59.895Z,99982.73
2018-08-13T00:47:29.413Z,99989.17
2018-08-13T00:49:58.982Z,99988.03
2018-08-13T00:52:28.527Z,99986.84
2018-08-13T00:54:58.124Z,99992.13
2018-08-13T00:57:27.685Z,99992.87
2018-08-13T00:59:57.287Z,99990.38
2018-08-13T01:02:26.812Z,99997.64
2018-08-13T01:04:56.392Z,100000.30
2018-08-13T01:07:26.028Z,99997.95
2018-08-13T01:09:55.641Z,99995.40
2018-08-13T01:12:25.296Z,99989.09
2018-08-13T01:14:54.815Z,99991.83
2018-08-13T01:17:24.444Z,99987.11
2018-08-13T01:19:54.030Z,99992.92
2018-08-13T01:22:23.591Z,99986.37
2018-08-13T01:24:53.167Z,99986.98
2018-08-13T01:27:27.855Z,99986.70
2018-08-13T01:29:57.471Z,99991.94
2018-08-13T01:32:27.025Z,99989.86
2018-08-13T01:34:56.725Z,99988.83
2018-08-13T01:37:26.936Z,99985.70
2018-08-13T01:39:57.177Z,99988.17
2018-08-13T01:42:26.683Z,99988.16
2018-08-13T01:44:56.301Z,99984.72
2018-08-13T01:47:25.839Z,99985.05
2018-08-13T01:49:55.412Z,99983.73
2018-08-13T01:52:24.993Z,99982.13
2018-08-13T01:54:54.499Z,99978.87
2018-08-13T01:57:24.144Z,99982.13
2018-08-13T01:59:53.671Z,99978.31
2018-08-13T02:02:23.202Z,99976.36
2018-08-13T02:04:52.811Z,99972.31
2018-08-13T02:07:22.476Z,99968.22
2018-08-13T02:09:52.107Z,99966.28
2018-08-13T02:12:21.742Z,99970.36
2018-08-13T02:14:51.292Z,99978.05
2018-08-13T02:17:20.935Z,99972.69
2018-08-13T02:19:50.481Z,99972.59
2018-08-13T02:22:20.128Z,99962.66
2018-08-13T02:24:49.779Z,99973.54
2018-08-13T02:27:19.323Z,99975.72
2018-08-13T02:29:48.907Z,99973.62
2018-08-13T02:32:18.450Z,99975.25
2018-08-13T02:34:48.021Z,99975.98
2018-08-13T02:37:17.644Z,99978.34
2018-08-13T02:39:47.331Z,99976.72
2018-08-13T02:42:16.912Z,99977.21
2018-08-13T02:44:46.492Z,99977.89
2018-08-13T02:47:15.985Z,99979.59
2018-08-13T02:49:45.573Z,99978.98
2018-08-13T02:52:15.164Z,99976.84
2018-08-13T02:54:44.735Z,99975.19
2018-08-13T02:57:14.329Z,99975.55
2018-08-13T02:59:43.928Z,99979.72
2018-08-13T03:02:13.564Z,99980.32
2018-08-13T03:04:43.293Z,99977.57
2018-08-13T03:07:12.856Z,99978.45
2018-08-13T03:09:42.444Z,99979.30
2018-08-13T03:12:11.989Z,99979.11
2018-08-13T03:14:41.608Z,99984.37
2018-08-13T03:17:12.460Z,99984.77
2018-08-13T03:19:42.068Z,99977.61
2018-08-13T03:22:11.635Z,99977.25
2018-08-13T03:24:41.276Z,99985.19
2018-08-13T03:27:10.871Z,99986.27
2018-08-13T03:29:40.423Z,99981.01
2018-08-13T03:32:10.045Z,99982.99
2018-08-13T03:34:39.709Z,99978.30
2018-08-13T03:37:09.248Z,99977.17
2018-08-13T03:39:38.862Z,99978.26
2018-08-13T03:42:08.391Z,99988.94
2018-08-13T03:44:37.962Z,99980.48
2018-08-13T03:47:07.547Z,99979.84
2018-08-13T03:49:37.172Z,99978.14
2018-08-13T03:52:08.851Z,99987.64
2018-08-13T03:54:38.460Z,99982.55
2018-08-13T03:57:08.080Z,99980.32
2018-08-13T03:59:37.699Z,99985.19
2018-08-13T04:02:07.232Z,99977.78
2018-08-13T04:04:36.856Z,99984.28
2018-08-13T04:07:06.606Z,99984.97
2018-08-13T04:09:36.216Z,99992.23
2018-08-13T04:12:05.843Z,99982.23
2018-08-13T04:14:35.426Z,99986.48
2018-08-13T04:17:05.208Z,99985.20
2018-08-13T04:19:34.872Z,99995.41
2018-08-13T04:22:04.547Z,99986.41
2018-08-13T04:24:34.155Z,99992.72
2018-08-13T04:27:03.786Z,99883.23
2018-08-13T04:29:33.362Z,99989.47
2018-08-13T04:32:02.930Z,99993.02
2018-08-13T04:34:32.519Z,99993.05
2018-08-13T04:37:02.183Z,99986.50
2018-08-13T04:39:31.731Z,99994.39
2018-08-13T04:42:01.367Z,99990.88
2018-08-13T04:44:30.897Z,99993.63
2018-08-13T04:47:00.451Z,99996.27
2018-08-13T04:49:30.000Z,99990.30
2018-08-13T04:51:59.648Z,99989.92
2018-08-13T04:54:29.203Z,99994.34
2018-08-13T04:56:58.817Z,99991.63
2018-08-13T04:59:28.473Z,99987.84
2018-08-13T05:01:58.095Z,99987.08
2018-08-13T05:04:27.763Z,99981.56
2018-08-13T05:06:57.352Z,99985.72
2018-08-13T05:09:27.192Z,99982.09
2018-08-13T05:11:56.725Z,99977.87
2018-08-13T05:14:26.397Z,99983.05
2018-08-13T05:16:56.591Z,99981.27
2018-08-13T05:19:26.167Z,99980.33
2018-08-13T05:21:55.805Z,99981.61
2018-08-13T05:24:25.375Z,99982.09
2018-08-13T05:26:55.028Z,99990.64
2018-08-13T05:29:24.599Z,99977.48
2018-08-13T05:31:54.227Z,99980.82
2018-08-13T05:34:23.823Z,99980.67
2018-08-13T05:36:53.445Z,99980.65
2018-08-13T05:39:22.978Z,99982.36
2018-08-13T05:41:52.683Z,99984.48
2018-08-13T05:44:22.232Z,99981.72
2018-08-13T05:46:51.771Z,99976.84
2018-08-13T05:49:21.318Z,99984.39
2018-08-13T05:51:51.247Z,99971.84
2018-08-13T05:54:21.107Z,99975.20
2018-08-13T05:56:50.719Z,99972.06
2018-08-13T05:59:20.315Z,99973.47
2018-08-13T06:01:49.923Z,99976.30
2018-08-13T06:04:19.607Z,99971.00
2018-08-13T06:06:49.390Z,99978.53
2018-08-13T06:09:18.938Z,99966.17
2018-08-13T06:11:48.588Z,99975.31
2018-08-13T06:14:18.171Z,99969.28
2018-08-13T06:16:47.754Z,99966.98
2018-08-13T06:19:17.348Z,99971.26
2018-08-13T06:21:47.028Z,99969.58
2018-08-13T06:24:16.668Z,99964.09
2018-08-13T06:26:46.416Z,99971.90
2018-08-13T06:29:16.075Z,99962.17
2018-08-13T06:31:45.667Z,99964.62
2018-08-13T06:34:15.271Z,99967.88
2018-08-13T06:36:44.830Z,99966.04
2018-08-13T06:39:14.503Z,99970.66
2018-08-13T06:41:44.243Z,99969.48
2018-08-13T06:44:13.921Z,99963.52
2018-08-13T06:46:43.563Z,99961.80
2018-08-13T06:49:13.232Z,99963.61
2018-08-13T06:51:42.903Z,99967.20
2018-08-13T06:54:12.534Z,99964.67
2018-08-13T06:56:42.108Z,99969.36
2018-08-13T06:59:11.756Z,99970.17
2018-08-13T07:01:41.291Z,99967.80
2018-08-13T07:04:10.960Z,99970.15
2018-08-13T07:06:40.589Z,99964.47
2018-08-13T07:09:11.227Z,99961.49
2018-08-13T07:11:40.789Z,99960.35
2018-08-13T07:14:10.404Z,99960.78
2018-08-13T07:16:39.982Z,99963.36
2018-08-13T07:19:09.485Z,99959.61
2018-08-13T07:21:39.123Z,99959.14
2018-08-13T07:24:08.880Z,99958.92
2018-08-13T07:26:38.512Z,99963.09
2018-08-13T07:29:08.234Z,99960.20
2018-08-13T07:31:37.872Z,99959.56
2018-08-13T07:34:07.744Z,99954.20
2018-08-13T07:36:37.487Z,99959.00
2018-08-13T07:39:09.572Z,99950.23
2018-08-13T07:41:39.425Z,99954.52
2018-08-13T07:44:09.444Z,99865.00
2018-08-13T07:46:39.132Z,99952.80
2018-08-13T07:49:08.847Z,99951.80
2018-08-13T07:51:38.459Z,99949.05
2018-08-13T07:54:08.186Z,99945.91
2018-08-13T07:56:37.753Z,99949.50
2018-08-13T07:59:07.376Z,99944.08
2018-08-13T08:01:37.066Z,99940.95
2018-08-13T08:04:06.654Z,99943.14
2018-08-13T08:06:36.200Z,99941.05
2018-08-13T08:09:09.514Z,99934.70
2018-08-13T08:11:39.191Z,99929.14
2018-08-13T08:14:09.186Z,99925.45
2018-08-13T08:16:38.877Z,99927.34
2018-08-13T08:19:08.392Z,99918.45
2018-08-13T08:21:37.976Z,99925.91
2018-08-13T08:24:07.823Z,99924.66
2018-08-13T08:26:38.384Z,99920.70
2018-08-13T08:29:09.338Z,99920.62
2018-08-13T08:31:39.111Z,99924.40
2018-08-13T08:34:09.436Z,99923.36
2018-08-13T08:36:39.256Z,99926.10
2018-08-13T08:39:12.229Z,99912.20
2018-08-13T08:41:41.880Z,99916.27
2018-08-13T08:44:11.967Z,99908.03
2018-08-13T08:46:42.108Z,99914.19
2018-08-13T08:49:11.728Z,99907.20
2018-08-13T08:51:41.363Z,99911.23
2018-08-13T08:54:11.689Z,99904.59
2018-08-13T08:56:41.320Z,99900.19
2018-08-13T08:59:11.220Z,99905.72
2018-08-13T09:01:40.955Z,99903.80
2018-08-13T09:04:10.666Z,99903.92
2018-08-13T09:06:40.280Z,99896.94
2018-08-13T09:09:12.475Z,99897.08
2018-08-13T09:11:42.866Z,99899.07
2018-08-13T09:14:12.562Z,99900.59
2018-08-13T09:16:44.627Z,99904.63
2018-08-13T09:19:25.038Z,99902.78
2018-08-13T09:22:04.367Z,99900.19
2018-08-13T09:24:44.800Z,99889.95
2018-08-13T09:27:25.223Z,99889.52
2018-08-13T09:30:05.716Z,99883.92
2018-08-13T09:32:46.213Z,99879.28
2018-08-13T09:35:19.407Z,99881.36
2018-08-13T09:37:48.947Z,99874.84
2018-08-13T09:40:18.620Z,99876.92
2018-08-13T09:42:48.291Z,99784.94
2018-08-13T09:45:18.135Z,99870.83
2018-08-13T09:47:47.900Z,99864.71
2018-08-13T09:50:18.539Z,99853.23
2018-08-13T09:52:48.920Z,99854.89
2018-08-13T09:55:19.077Z,99855.15
2018-08-13T09:57:49.329Z,99856.27
2018-08-13T10:00:25.275Z,99848.44
2018-08-13T10:02:54.951Z,99845.00
2018-08-13T10:05:24.708Z,99850.45
2018-08-13T10:07:54.257Z,99844.86
2018-08-13T10:10:23.947Z,99843.03
2018-08-13T10:12:53.746Z,99829.19
2018-08-13T10:15:23.597Z,99834.19
2018-08-13T10:17:53.307Z,99841.86
2018-08-13T10:20:22.943Z,99839.03
2018-08-13T10:22:52.587Z,99832.59
2018-08-13T10:25:22.210Z,99837.41
2018-08-13T10:27:51.739Z,99840.41
2018-08-13T10:30:21.480Z,99829.27
2018-08-13T10:32:51.109Z,99830.73
2018-08-13T10:35:20.699Z,99821.98
2018-08-13T10:37:50.292Z,99819.63
2018-08-13T10:40:20.387Z,99811.30
2018-08-13T10:42:50.075Z,99823.06
2018-08-13T10:45:19.688Z,99812.46
2018-08-13T10:47:49.395Z,99804.97
2018-08-13T10:50:18.918Z,99806.06
2018-08-13T10:52:48.522Z,99803.88
2018-08-13T10:55:18.195Z,99802.28
2018-08-13T10:57:47.891Z,99800.62
2018-08-13T11:00:17.947Z,99794.62
2018-08-13T11:02:47.653Z,99792.65
2018-08-13T11:05:17.367Z,99791.88
2018-08-13T11:07:47.011Z,99791.08
2018-08-13T11:10:17.038Z,99735.69
2018-08-13T11:12:46.660Z,99783.84
2018-08-13T11:15:18.871Z,99773.25
2018-08-13T11:17:48.518Z,99774.13
2018-08-13T11:20:18.347Z,99689.38
2018-08-13T11:22:48.196Z,99764.13
2018-08-13T11:25:17.954Z,99766.88
2018-08-13T11:27:47.474Z,99764.36
2018-08-13T11:30:17.736Z,99761.20
2018-08-13T11:32:47.363Z,99755.20
2018-08-13T11:35:17.191Z,99761.35
2018-08-13T11:37:46.799Z,99751.17
2018-08-13T11:40:17.540Z,99754.86
2018-08-13T11:42:47.249Z,99762.18
2018-08-13T11:45:16.803Z,99753.27
2018-08-13T11:47:46.459Z,99743.88
2018-08-13T11:50:18.576Z,99746.45
2018-08-13T11:52:49.351Z,99740.85
2018-08-13T11:55:19.209Z,99737.77
2018-08-13T11:57:49.822Z,99739.27
2018-08-13T12:00:19.505Z,99741.00
2018-08-13T12:02:49.220Z,99728.96
2018-08-13T12:05:18.794Z,99725.33
2018-08-13T12:07:48.467Z,99725.88
2018-08-13T12:10:18.063Z,99722.50
2018-08-13T12:12:47.735Z,99718.93
2018-08-13T12:15:17.282Z,99720.93
2018-08-13T12:17:47.032Z,99711.44
2018-08-13T12:20:18.557Z,99705.05
2018-08-13T12:22:48.455Z,99708.72
2018-08-13T12:25:26.502Z,99700.11
2018-08-13T12:27:56.326Z,99697.05
2018-08-13T12:30:26.185Z,99695.23
2018-08-13T12:32:56.466Z,99696.73
2018-08-13T12:35:26.063Z,99697.92
2018-08-13T12:37:55.723Z,99690.34
2018-08-13T12:40:25.315Z,99686.55
2018-08-13T12:42:54.964Z,99687.77
2018-08-13T12:45:24.670Z,99683.74
2018-08-13T12:47:54.316Z,99682.78
2018-08-13T12:50:24.040Z,99677.96
2018-08-13T12:52:53.647Z,99677.53
2018-08-13T12:55:23.423Z,99669.17
2018-08-13T12:57:52.987Z,99668.81
2018-08-13T13:00:22.694Z,99667.97
2018-08-13T13:02:52.235Z,99662.09
2018-08-13T13:05:21.927Z,99653.69
2018-08-13T13:07:51.535Z,99658.49
2018-08-13T13:10:21.131Z,99650.27
2018-08-13T13:12:50.723Z,99653.22
2018-08-13T13:15:21.148Z,99659.80
2018-08-13T13:17:50.853Z,99649.06
2018-08-13T13:20:22.536Z,99648.68
2018-08-13T13:22:52.497Z,99647.80
2018-08-13T13:25:22.136Z,99647.28
2018-08-13T13:27:51.860Z,99639.61
2018-08-13T13:30:21.540Z,99642.00
2018-08-13T13:32:51.347Z,99644.17
2018-08-13T13:35:24.932Z,99631.95
2018-08-13T13:37:54.648Z,99629.02
2018-08-13T13:40:24.297Z,99632.05
2018-08-13T13:42:53.873Z,99632.48
2018-08-13T13:45:23.455Z,99630.70
2018-08-13T13:47:53.104Z,99632.16
2018-08-13T13:50:22.733Z,99628.17
2018-08-13T13:52:52.259Z,99621.81
2018-08-13T13:55:21.924Z,99629.34
2018-08-13T13:57:51.511Z,99624.95
2018-08-13T14:00:21.948Z,99628.50
2018-08-13T14:02:52.543Z,99618.27
2018-08-13T14:05:22.217Z,99618.83
2018-08-13T14:07:51.871Z,99618.64
2018-08-13T14:10:23.163Z,99521.48
2018-08-13T14:12:52.895Z,99610.97
2018-08-13T14:15:23.319Z,99611.05
2018-08-13T14:17:53.151Z,99604.84
2018-08-13T14:20:22.851Z,99610.63
2018-08-13T14:22:52.579Z,99597.83
2018-08-13T14:25:22.245Z,99597.71
2018-08-13T14:27:51.849Z,99596.48
2018-08-13T14:30:23.665Z,99595.94
2018-08-13T14:32:53.480Z,99600.09
2018-08-13T14:35:23.932Z,99592.80
2018-08-13T14:37:53.655Z,99599.66
2018-08-13T14:40:23.338Z,99504.50
2018-08-13T14:42:53.023Z,99594.98
2018-08-13T14:45:22.782Z,99601.44
2018-08-13T14:47:52.969Z,99599.02
2018-08-13T14:50:22.633Z,99603.03
2018-08-13T14:52:52.288Z,99597.13
2018-08-13T14:55:22.839Z,99596.86
2018-08-13T14:57:52.416Z,99595.41
2018-08-13T15:00:24.495Z,99591.16
2018-08-13T15:02:55.130Z,99590.66
2018-08-13T15:05:24.801Z,99582.20
2018-08-13T15:07:54.375Z,99587.51
2018-08-13T15:10:25.179Z,99586.09
2018-08-13T15:12:55.020Z,99581.96
2018-08-13T15:15:24.699Z,99583.45
2018-08-13T15:17:54.247Z,99579.06
2018-08-13T15:20:26.987Z,99581.80
2018-08-13T15:22:56.674Z,99582.01
2018-08-13T15:25:26.527Z,99581.78
2018-08-13T15:27:56.233Z,99573.02
2018-08-13T15:30:26.261Z,99573.92
2018-08-13T15:32:55.871Z,99573.55
2018-08-13T15:35:25.620Z,99574.70
2018-08-13T15:37:55.116Z,99575.41
2018-08-13T15:40:24.754Z,99573.34
2018-08-13T15:42:54.384Z,99571.83
2018-08-13T15:45:24.761Z,99572.36
2018-08-13T15:47:54.357Z,99575.86
2018-08-13T15:50:24.512Z,99570.80
2018-08-13T15:52:54.191Z,99576.83
2018-08-13T15:55:23.907Z,99565.91
2018-08-13T15:57:53.522Z,99564.22
2018-08-13T16:00:25.064Z,99557.72
2018-08-13T16:02:54.985Z,99559.66
2018-08-13T16:05:24.665Z,99555.72
2018-08-13T16:07:54.492Z,99561.22
2018-08-13T16:10:24.065Z,99560.14
2018-08-13T16:12:55.295Z,99554.84
2018-08-13T16:15:25.329Z,99552.74
2018-08-13T16:17:54.932Z,99559.93
2018-08-13T16:20:24.619Z,99558.42
2018-08-13T16:22:54.135Z,99554.25
2018-08-13T16:25:23.754Z,99558.33
2018-08-13T16:27:53.360Z,99554.42
2018-08-13T16:30:30.613Z,99562.52
2018-08-13T16:33:00.352Z,99561.13
2018-08-13T16:35:30.087Z,99570.91
2018-08-13T16:37:59.595Z,99567.52
2018-08-13T16:40:29.635Z,99563.64
2018-08-13T16:42:59.269Z,99563.92
2018-08-13T16:45:28.980Z,99559.16
2018-08-13T16:47:58.615Z,99565.41
2018-08-13T16:50:30.144Z,99565.32
2018-08-13T16:53:00.211Z,99567.09
2018-08-13T16:55:30.994Z,99573.66
2018-08-13T16:58:01.384Z,99566.95
2018-08-13T17:00:31.956Z,99564.77
2018-08-13T17:03:01.883Z,99570.45
2018-08-13T17:05:33.223Z,99569.12
2018-08-13T17:08:02.914Z,99573.36
2018-08-13T17:10:32.492Z,99571.56
2018-08-13T17:13:02.167Z,99569.98
2018-08-13T17:15:32.432Z,99568.19
2018-08-13T17:18:02.982Z,99573.13
2018-08-13T17:20:36.118Z,99571.92
2018-08-13T17:23:05.691Z,99578.83
2018-08-13T17:25:35.500Z,99577.89
2018-08-13T17:28:05.179Z,99575.77
2018-08-13T17:30:34.867Z,99579.14
2018-08-13T17:33:04.613Z,99583.73
2018-08-13T17:35:35.387Z,99587.04
2018-08-13T17:38:09.593Z,99588.93
2018-08-13T17:40:39.309Z,99585.72
2018-08-13T17:43:10.434Z,99588.95
2018-08-13T17:45:39.882Z,99595.70
2018-08-13T17:48:10.305Z,99599.43
2018-08-13T17:50:39.925Z,99598.64
2018-08-13T17:53:10.224Z,99600.62
2018-08-13T17:55:39.895Z,99605.95
2018-08-13T17:58:09.552Z,99610.49
2018-08-13T18:00:39.248Z,99617.91
2018-08-13T18:03:08.920Z,99614.66
2018-08-13T18:05:38.554Z,99618.08
2018-08-13T18:08:08.401Z,99620.64
2018-08-13T18:10:38.046Z,99609.05
2018-08-13T18:13:08.908Z,99612.53
2018-08-13T18:15:38.705Z,99620.27
2018-08-13T18:18:08.245Z,99619.34
2018-08-13T18:20:37.836Z,99617.94
2018-08-13T18:23:07.564Z,99624.75
2018-08-13T18:25:37.232Z,99621.27
2018-08-13T18:28:06.876Z,99620.33
2018-08-13T18:30:36.587Z,99620.19
2018-08-13T18:33:06.565Z,99625.94
2018-08-13T18:35:36.103Z,99632.86
2018-08-13T18:38:05.711Z,99623.14
2018-08-13T18:40:35.507Z,99637.92
2018-08-13T18:43:05.163Z,99635.11
2018-08-13T18:45:34.787Z,99643.89
2018-08-13T18:48:04.444Z,99637.39
2018-08-13T18:50:34.051Z,99640.97
2018-08-13T18:53:03.753Z,99639.55
2018-08-13T18:55:33.357Z,99642.18
2018-08-13T18:58:03.047Z,99639.52
2018-08-13T19:00:32.816Z,99638.45
2018-08-13T19:03:03.094Z,99641.45
2018-08-13T19:05:34.300Z,99637.95
2018-08-13T19:08:04.039Z,99635.61
2018-08-13T19:10:33.616Z,99633.58
2018-08-13T19:13:03.183Z,99632.73
2018-08-13T19:15:32.751Z,99638.01
2018-08-13T19:18:02.345Z,99636.33
2018-08-13T19:20:32.042Z,99641.07
2018-08-13T19:23:01.715Z,99642.56
2018-08-13T19:25:31.420Z,99645.50
2018-08-13T19:28:01.052Z,99651.58
2018-08-13T19:30:30.792Z,99652.72
2018-08-13T19:33:00.401Z,99650.19
2018-08-13T19:35:30.053Z,99653.03
2018-08-13T19:37:59.588Z,99654.25
2018-08-13T19:40:29.411Z,99660.18
2018-08-13T19:42:58.932Z,99535.80
2018-08-13T19:45:28.487Z,99665.73
2018-08-13T19:47:58.115Z,99665.73
2018-08-13T19:50:27.664Z,99669.39
2018-08-13T19:52:57.269Z,99668.75
2018-08-13T19:55:26.864Z,99668.32
2018-08-13T19:57:56.495Z,99672.65
2018-08-13T20:00:27.403Z,99671.17
2018-08-13T20:02:57.136Z,99674.92
2018-08-13T20:05:27.795Z,99683.84
2018-08-13T20:07:57.454Z,99677.11
2018-08-13T20:10:27.005Z,99672.69
2018-08-13T20:12:56.755Z,99671.70
2018-08-13T20:15:26.311Z,99680.63
2018-08-13T20:17:55.988Z,99679.55
2018-08-13T20:20:25.585Z,99686.13
2018-08-13T20:22:55.245Z,99697.97
2018-08-13T20:25:24.899Z,99694.39
2018-08-13T20:27:54.503Z,99696.40
2018-08-13T20:30:24.179Z,99692.70
2018-08-13T20:32:54.102Z,99695.28
2018-08-13T20:35:23.663Z,99692.39
2018-08-13T20:37:53.249Z,99699.56
2018-08-13T20:40:22.976Z,99691.64
2018-08-13T20:42:52.622Z,99698.59
2018-08-13T20:45:22.647Z,99695.50
2018-08-13T20:47:52.242Z,99695.50
2018-08-13T20:50:24.008Z,99703.91
2018-08-13T20:52:54.440Z,99709.86
2018-08-13T20:55:28.276Z,99706.23
2018-08-13T20:57:57.879Z,99713.55
2018-08-13T21:00:29.120Z,99711.06
2018-08-13T21:02:58.835Z,99717.28
2018-08-13T21:05:28.478Z,99715.62
2018-08-13T21:07:58.048Z,99720.47
2018-08-13T21:10:27.747Z,99722.61
2018-08-13T21:12:57.363Z,99723.91
2018-08-13T21:15:27.019Z,99727.82
2018-08-13T21:17:56.530Z,99723.34
2018-08-13T21:20:27.904Z,99726.95
2018-08-13T21:22:57.727Z,99725.06
2018-08-13T21:25:27.367Z,99730.86
2018-08-13T21:27:57.056Z,99737.61
2018-08-13T21:30:26.659Z,99738.30
2018-08-13T21:32:56.267Z,99729.09
2018-08-13T21:35:26.407Z,99730.75
2018-08-13T21:37:55.951Z,99738.03
2018-08-13T21:40:25.546Z,99735.31
2018-08-13T21:42:55.213Z,99733.23
2018-08-13T21:45:24.792Z,99728.75
2018-08-13T21:47:54.465Z,99726.64
2018-08-13T21:50:24.221Z,99731.32
2018-08-13T21:52:53.807Z,99728.63
2018-08-13T21:55:23.382Z,99731.52
2018-08-13T21:57:53.026Z,99730.82
2018-08-13T22:00:28.016Z,99725.48
2018-08-13T22:02:59.784Z,99729.58
2018-08-13T22:05:29.439Z,99728.29
2018-08-13T22:07:59.300Z,99731.38
2018-08-13T22:10:28.974Z,99737.52
2018-08-13T22:12:58.587Z,99740.98
2018-08-13T22:15:29.098Z,99737.77
2018-08-13T22:18:04.183Z,99736.39
2018-08-13T22:20:35.068Z,99737.08
2018-08-13T22:23:05.552Z,99741.16
2018-08-13T22:25:41.798Z,99738.26
2018-08-13T22:28:12.280Z,99736.27
2018-08-13T22:30:42.064Z,99736.64
2018-08-13T22:33:12.571Z,99739.59
2018-08-13T22:35:42.150Z,99741.54
2018-08-13T22:38:11.827Z,99746.69
2018-08-13T22:40:41.771Z,99746.07
2018-08-13T22:43:11.335Z,99750.45
2018-08-13T22:45:40.879Z,99751.45
2018-08-13T22:48:10.560Z,99752.47
2018-08-13T22:50:40.107Z,99755.47
2018-08-13T22:53:09.700Z,99756.99
2018-08-13T22:55:39.447Z,99756.73
2018-08-13T22:58:09.079Z,99752.58
2018-08-13T23:00:38.718Z,99756.41
2018-08-13T23:03:08.471Z,99756.86
2018-08-13T23:05:38.059Z,99761.86
2018-08-13T23:08:07.888Z,99761.99
2018-08-13T23:10:37.447Z,99761.92
2018-08-13T23:13:14.560Z,99765.19
2018-08-13T23:15:44.251Z,99767.08
2018-08-13T23:18:13.918Z,99765.77
2018-08-13T23:20:43.629Z,99763.20
2018-08-13T23:23:13.239Z,99763.30
2018-08-13T23:25:42.840Z,99756.58
2018-08-13T23:28:12.729Z,99757.86
2018-08-13T23:30:42.275Z,99757.22
2018-08-13T23:33:11.915Z,99750.02
2018-08-13T23:35:41.460Z,99749.70
2018-08-13T23:38:11.048Z,99737.36
2018-08-13T23:40:40.625Z,99739.05
2018-08-13T23:43:10.220Z,99649.09
2018-08-13T23:45:39.829Z,99738.27
2018-08-13T23:48:09.335Z,99740.29
2018-08-13T23:50:38.972Z,99738.54
2018-08-13T23:53:08.636Z,99739.14
2018-08-13T23:55:39.515Z,99729.82
2018-08-13T23:58:12.130Z,99619.44
